createdAt,value
2022-12-23T00:01:30.446Z,5.44
2022-12-23T00:04:02.106Z,5.47
2022-12-23T00:06:33.996Z,5.48
2022-12-23T00:09:05.544Z,5.46
2022-12-23T00:11:37.190Z,5.46
2022-12-23T00:14:27.324Z,5.41
2022-12-23T00:16:59.279Z,5.48
2022-12-23T00:19:30.810Z,5.50
2022-12-23T00:22:02.769Z,5.51
2022-12-23T00:24:34.302Z,5.53
2022-12-23T00:27:06.206Z,5.56
2022-12-23T00:29:37.728Z,5.56
2022-12-23T00:32:09.892Z,5.58
2022-12-23T00:34:41.503Z,5.60
2022-12-23T00:37:13.368Z,5.55
2022-12-23T00:40:06.751Z,5.48
2022-12-23T00:42:54.435Z,5.48
2022-12-23T00:45:25.974Z,5.44
2022-12-23T00:48:16.642Z,5.43
2022-12-23T00:50:48.143Z,5.41
2022-12-23T00:53:19.984Z,5.41
2022-12-23T00:55:51.526Z,5.40
2022-12-23T00:58:23.508Z,5.37
2022-12-23T01:01:14.495Z,5.32
2022-12-23T01:04:05.059Z,5.35
2022-12-23T01:06:36.916Z,5.37
2022-12-23T01:09:08.442Z,4.61
2022-12-23T01:11:39.976Z,5.39
2022-12-23T01:14:12.705Z,5.41
2022-12-23T01:16:44.681Z,5.41
2022-12-23T01:19:16.463Z,5.40
2022-12-23T01:21:48.295Z,5.41
2022-12-23T01:24:19.822Z,5.44
2022-12-23T01:26:51.378Z,5.44
2022-12-23T01:29:22.944Z,5.44
2022-12-23T01:31:54.913Z,5.46
2022-12-23T01:34:31.051Z,5.49
2022-12-23T01:37:06.402Z,5.49
2022-12-23T01:39:37.955Z,5.53
2022-12-23T01:42:28.778Z,5.50
2022-12-23T01:45:03.132Z,5.47
2022-12-23T01:47:35.120Z,5.47
2022-12-23T01:50:07.054Z,5.48
2022-12-23T01:52:38.896Z,5.45
2022-12-23T01:55:10.477Z,5.45
2022-12-23T01:57:42.338Z,5.45
2022-12-23T02:00:32.388Z,5.42
2022-12-23T02:03:23.105Z,5.46
2022-12-23T02:06:14.660Z,5.50
2022-12-23T02:09:05.268Z,5.57
2022-12-23T02:11:36.795Z,5.60
2022-12-23T02:14:27.364Z,5.63
2022-12-23T02:16:59.287Z,5.65
2022-12-23T02:19:30.898Z,5.65
2022-12-23T02:22:02.848Z,5.63
2022-12-23T02:24:34.444Z,5.63
2022-12-23T02:27:06.380Z,5.65
2022-12-23T02:29:37.901Z,5.68
2022-12-23T02:32:09.715Z,5.69
2022-12-23T02:34:41.277Z,5.69
2022-12-23T02:37:13.115Z,5.69
2022-12-23T02:39:45.018Z,5.67
2022-12-23T02:42:16.824Z,5.68
2022-12-23T02:44:48.395Z,5.70
2022-12-23T02:47:20.550Z,5.70
2022-12-23T02:49:52.075Z,5.71
2022-12-23T02:52:24.019Z,5.72
2022-12-23T02:54:55.508Z,5.70
2022-12-23T02:57:27.366Z,5.71
2022-12-23T02:59:58.901Z,5.68
2022-12-23T03:02:30.981Z,5.68
2022-12-23T03:05:02.629Z,5.70
2022-12-23T03:07:34.391Z,5.67
2022-12-23T03:10:05.877Z,5.67
2022-12-23T03:12:37.411Z,5.64
2022-12-23T03:15:08.928Z,5.62
2022-12-23T03:17:41.044Z,5.65
2022-12-23T03:20:12.596Z,5.63
2022-12-23T03:22:44.477Z,5.65
2022-12-23T03:25:15.995Z,5.63
2022-12-23T03:27:47.838Z,5.66
2022-12-23T03:30:19.343Z,3.70
2022-12-23T03:32:51.232Z,5.64
2022-12-23T03:35:22.748Z,5.67
2022-12-23T03:37:54.366Z,5.64
2022-12-23T03:40:25.916Z,5.59
2022-12-23T03:42:57.797Z,5.62
2022-12-23T03:45:38.814Z,5.62
2022-12-23T03:48:11.469Z,5.62
2022-12-23T03:50:42.993Z,5.63
2022-12-23T03:53:14.810Z,5.62
2022-12-23T03:55:46.372Z,5.61
2022-12-23T03:58:18.176Z,5.68
2022-12-23T04:00:49.681Z,5.69
2022-12-23T04:03:21.584Z,5.72
2022-12-23T04:05:53.946Z,5.70
2022-12-23T04:08:25.902Z,5.70
2022-12-23T04:10:57.405Z,5.69
2022-12-23T04:13:29.373Z,5.73
2022-12-23T04:16:00.956Z,5.73
2022-12-23T04:18:32.964Z,5.72
2022-12-23T04:21:04.592Z,5.78
2022-12-23T04:23:36.414Z,5.78
2022-12-23T04:26:07.926Z,4.77
2022-12-23T04:28:39.826Z,5.79
2022-12-23T04:31:11.428Z,5.80
2022-12-23T04:33:43.370Z,5.79
2022-12-23T04:36:15.238Z,5.77
2022-12-23T04:38:47.162Z,5.78
2022-12-23T04:41:18.718Z,4.56
2022-12-23T04:43:52.982Z,5.81
2022-12-23T04:46:25.008Z,5.86
2022-12-23T04:48:56.551Z,5.85
2022-12-23T04:51:28.058Z,5.84
2022-12-23T04:53:59.861Z,5.86
2022-12-23T04:56:31.388Z,5.88
2022-12-23T04:59:04.525Z,5.85
2022-12-23T05:01:36.197Z,5.89
2022-12-23T05:04:08.053Z,5.93
2022-12-23T05:06:39.620Z,5.95
2022-12-23T05:09:11.499Z,5.96
2022-12-23T05:11:43.002Z,5.99
2022-12-23T05:14:14.949Z,5.97
2022-12-23T05:16:46.511Z,5.99
2022-12-23T05:19:18.064Z,6.01
2022-12-23T05:21:49.572Z,6.01
2022-12-23T05:24:21.094Z,5.99
2022-12-23T05:26:59.449Z,5.97
2022-12-23T05:29:31.969Z,5.93
2022-12-23T05:32:03.560Z,5.95
2022-12-23T05:34:35.473Z,5.98
2022-12-23T05:37:07.010Z,5.94
2022-12-23T05:39:38.540Z,5.94
2022-12-23T05:42:10.061Z,6.01
2022-12-23T05:44:41.844Z,5.98
2022-12-23T05:47:13.367Z,6.01
2022-12-23T05:49:45.155Z,5.99
2022-12-23T05:52:16.675Z,6.01
2022-12-23T05:54:48.635Z,6.04
2022-12-23T05:57:20.253Z,6.03
2022-12-23T05:59:52.094Z,6.06
2022-12-23T06:02:23.797Z,6.07
2022-12-23T06:04:55.736Z,6.11
2022-12-23T06:07:27.251Z,6.11
2022-12-23T06:09:59.119Z,6.05
2022-12-23T06:12:30.632Z,6.07
2022-12-23T06:15:02.507Z,6.08
2022-12-23T06:17:34.014Z,6.12
2022-12-23T06:20:06.017Z,6.11
2022-12-23T06:22:37.531Z,6.15
2022-12-23T06:25:09.465Z,6.14
2022-12-23T06:27:40.964Z,6.21
2022-12-23T06:30:12.805Z,6.27
2022-12-23T06:32:44.307Z,6.34
2022-12-23T06:35:16.144Z,6.40
2022-12-23T06:37:47.993Z,6.44
2022-12-23T06:40:19.516Z,6.51
2022-12-23T06:42:51.411Z,6.55
2022-12-23T06:45:22.937Z,6.58
2022-12-23T06:47:54.776Z,6.57
2022-12-23T06:50:26.280Z,6.64
2022-12-23T06:52:58.112Z,6.66
2022-12-23T06:55:29.665Z,6.69
2022-12-23T06:58:01.211Z,6.71
2022-12-23T07:00:32.762Z,6.73
2022-12-23T07:03:04.682Z,6.76
2022-12-23T07:05:37.571Z,6.74
2022-12-23T07:08:09.930Z,6.75
2022-12-23T07:10:41.546Z,6.77
2022-12-23T07:13:13.406Z,6.79
2022-12-23T07:15:44.933Z,6.81
2022-12-23T07:18:16.804Z,6.82
2022-12-23T07:20:48.304Z,6.86
2022-12-23T07:23:20.152Z,6.87
2022-12-23T07:25:51.666Z,6.84
2022-12-23T07:28:23.353Z,6.84
2022-12-23T07:30:54.870Z,6.85
2022-12-23T07:33:26.687Z,6.85
2022-12-23T07:35:58.208Z,6.84
2022-12-23T07:38:29.979Z,6.82
2022-12-23T07:41:01.511Z,6.83
2022-12-23T07:43:33.418Z,6.85
2022-12-23T07:46:05.090Z,6.83
2022-12-23T07:48:36.738Z,6.83
2022-12-23T07:51:08.343Z,6.86
2022-12-23T07:53:39.966Z,6.83
2022-12-23T07:56:11.495Z,6.81
2022-12-23T07:58:43.353Z,6.82
2022-12-23T08:01:14.974Z,6.76
2022-12-23T08:03:47.049Z,6.81
2022-12-23T08:06:19.787Z,6.78
2022-12-23T08:08:51.352Z,6.73
2022-12-23T08:11:22.871Z,6.75
2022-12-23T08:13:54.781Z,6.74
2022-12-23T08:16:26.350Z,6.71
2022-12-23T08:18:58.226Z,6.76
2022-12-23T08:21:29.750Z,6.81
2022-12-23T08:24:01.744Z,6.92
2022-12-23T08:26:33.265Z,6.99
2022-12-23T08:29:05.051Z,7.07
2022-12-23T08:31:36.648Z,7.09
2022-12-23T08:34:08.528Z,7.09
2022-12-23T08:36:40.069Z,7.15
2022-12-23T08:39:11.965Z,7.16
2022-12-23T08:41:43.588Z,7.07
2022-12-23T08:44:15.137Z,7.12
2022-12-23T08:46:46.872Z,7.17
2022-12-23T08:49:18.798Z,7.17
2022-12-23T08:51:50.314Z,7.12
2022-12-23T08:54:23.723Z,7.11
2022-12-23T08:56:55.244Z,7.12
2022-12-23T08:59:27.169Z,7.13
2022-12-23T09:01:59.813Z,6.98
2022-12-23T09:04:31.865Z,7.11
2022-12-23T09:07:03.437Z,7.21
2022-12-23T09:09:36.715Z,7.29
2022-12-23T09:12:08.230Z,7.36
2022-12-23T09:14:40.343Z,7.44
2022-12-23T09:17:11.875Z,7.46
2022-12-23T09:19:48.617Z,7.48
2022-12-23T09:22:23.880Z,7.43
2022-12-23T09:24:59.879Z,7.51
2022-12-23T09:27:34.715Z,7.50
2022-12-23T09:30:06.390Z,7.55
2022-12-23T09:32:37.903Z,7.58
2022-12-23T09:35:10.396Z,7.60
2022-12-23T09:37:41.906Z,7.43
2022-12-23T09:40:13.992Z,7.38
2022-12-23T09:42:45.532Z,7.41
2022-12-23T09:45:17.385Z,7.50
2022-12-23T09:47:48.900Z,7.59
2022-12-23T09:50:20.892Z,7.54
2022-12-23T09:52:52.421Z,7.53
2022-12-23T09:55:24.218Z,7.52
2022-12-23T09:57:56.727Z,7.57
2022-12-23T10:00:28.580Z,7.48
2022-12-23T10:03:00.285Z,7.41
2022-12-23T10:05:32.264Z,7.37
2022-12-23T10:08:03.770Z,7.50
2022-12-23T10:10:35.311Z,7.41
2022-12-23T10:13:06.818Z,7.39
2022-12-23T10:15:38.752Z,7.37
2022-12-23T10:18:10.266Z,7.42
2022-12-23T10:20:42.197Z,7.45
2022-12-23T10:23:13.833Z,7.40
2022-12-23T10:25:45.350Z,7.52
2022-12-23T10:28:16.887Z,7.63
2022-12-23T10:31:10.886Z,7.62
2022-12-23T10:33:40.209Z,7.83
2022-12-23T10:36:12.175Z,7.74
2022-12-23T10:38:43.786Z,7.84
2022-12-23T10:41:15.754Z,7.79
2022-12-23T10:43:47.269Z,7.82
2022-12-23T10:46:19.851Z,7.77
2022-12-23T10:48:51.416Z,7.81
2022-12-23T10:51:24.553Z,7.97
2022-12-23T10:53:56.144Z,7.97
2022-12-23T10:56:28.160Z,8.01
2022-12-23T10:59:00.008Z,8.00
2022-12-23T11:01:31.711Z,7.98
2022-12-23T11:04:03.835Z,8.06
2022-12-23T11:06:37.718Z,6.81
2022-12-23T11:09:09.832Z,8.30
2022-12-23T11:11:41.357Z,8.52
2022-12-23T11:14:12.903Z,8.64
2022-12-23T11:16:44.433Z,8.77
2022-12-23T11:19:16.339Z,8.86
2022-12-23T11:21:47.833Z,8.61
2022-12-23T11:24:19.630Z,8.40
2022-12-23T11:26:51.237Z,8.28
2022-12-23T11:29:24.280Z,8.28
2022-12-23T11:31:55.939Z,8.14
2022-12-23T11:34:27.516Z,8.11
2022-12-23T11:37:03.575Z,7.92
2022-12-23T11:39:38.942Z,8.06
2022-12-23T11:42:10.470Z,8.12
2022-12-23T11:44:42.263Z,8.11
2022-12-23T11:47:13.767Z,7.97
2022-12-23T11:49:45.622Z,7.99
2022-12-23T11:52:17.147Z,7.77
2022-12-23T11:54:54.207Z,7.75
2022-12-23T11:57:26.178Z,7.80
2022-12-23T11:59:57.766Z,7.69
2022-12-23T12:02:29.334Z,7.59
2022-12-23T12:05:00.876Z,7.60
2022-12-23T12:07:32.424Z,7.57
2022-12-23T12:10:04.478Z,7.44
2022-12-23T12:12:35.985Z,7.44
2022-12-23T12:15:08.526Z,7.39
2022-12-23T12:17:40.034Z,7.41
2022-12-23T12:20:41.124Z,7.45
2022-12-23T12:23:12.947Z,7.38
2022-12-23T12:25:44.887Z,7.46
2022-12-23T12:28:16.424Z,7.69
2022-12-23T12:30:48.338Z,7.79
2022-12-23T12:33:19.912Z,7.84
2022-12-23T12:35:53.956Z,7.81
2022-12-23T12:38:26.162Z,7.89
2022-12-23T12:40:57.966Z,7.89
2022-12-23T12:43:30.932Z,7.96
2022-12-23T12:46:02.926Z,8.02
2022-12-23T12:48:34.527Z,8.23
2022-12-23T12:51:06.360Z,8.34
2022-12-23T12:53:37.916Z,8.34
2022-12-23T12:56:09.576Z,8.31
2022-12-23T12:58:41.109Z,8.36
2022-12-23T13:01:13.308Z,8.37
2022-12-23T13:03:44.867Z,8.30
2022-12-23T13:06:16.435Z,8.32
2022-12-23T13:08:47.956Z,8.33
2022-12-23T13:11:24.803Z,8.18
2022-12-23T13:13:59.641Z,8.06
2022-12-23T13:16:31.605Z,7.87
2022-12-23T13:19:03.487Z,7.91
2022-12-23T13:21:35.286Z,7.82
2022-12-23T13:24:06.815Z,7.86
2022-12-23T13:26:38.728Z,7.88
2022-12-23T13:29:10.267Z,7.98
2022-12-23T13:31:42.973Z,7.92
2022-12-23T13:34:15.416Z,7.97
2022-12-23T13:36:47.038Z,8.00
2022-12-23T13:39:18.584Z,7.94
2022-12-23T13:41:50.478Z,7.85
2022-12-23T13:44:21.987Z,7.71
2022-12-23T13:46:53.875Z,7.76
2022-12-23T13:49:25.411Z,7.70
2022-12-23T13:51:56.937Z,7.64
2022-12-23T13:54:28.511Z,7.66
2022-12-23T13:57:01.330Z,7.65
2022-12-23T13:59:32.861Z,7.62
2022-12-23T14:02:04.800Z,7.65
2022-12-23T14:04:36.523Z,7.72
2022-12-23T14:07:08.601Z,7.68
2022-12-23T14:09:40.779Z,7.62
2022-12-23T14:12:12.628Z,7.53
2022-12-23T14:14:44.131Z,7.64
2022-12-23T14:17:16.857Z,7.69
2022-12-23T14:19:48.404Z,7.70
2022-12-23T14:22:20.264Z,7.61
2022-12-23T14:24:51.836Z,7.45
2022-12-23T14:27:23.518Z,7.56
2022-12-23T14:29:57.447Z,7.47
2022-12-23T14:32:33.415Z,7.42
2022-12-23T14:35:05.264Z,7.41
2022-12-23T14:37:36.934Z,7.33
2022-12-23T14:40:08.492Z,7.27
2022-12-23T14:42:40.011Z,7.27
2022-12-23T14:45:11.940Z,7.27
2022-12-23T14:47:46.437Z,7.16
2022-12-23T14:50:18.293Z,7.08
2022-12-23T14:52:49.881Z,7.03
2022-12-23T14:55:30.438Z,7.03
2022-12-23T14:58:07.445Z,6.94
2022-12-23T15:00:39.679Z,6.94
2022-12-23T15:03:11.298Z,6.94
2022-12-23T15:05:43.301Z,6.90
2022-12-23T15:08:14.828Z,6.87
2022-12-23T15:10:46.735Z,6.92
2022-12-23T15:13:18.264Z,6.96
2022-12-23T15:15:50.690Z,6.88
2022-12-23T15:18:24.795Z,6.87
2022-12-23T15:20:56.941Z,6.84
2022-12-23T15:23:28.481Z,6.81
2022-12-23T15:26:00.436Z,6.75
2022-12-23T15:28:32.077Z,6.75
2022-12-23T15:31:05.154Z,6.82
2022-12-23T15:34:03.031Z,6.84
2022-12-23T15:36:30.962Z,6.82
2022-12-23T15:39:02.626Z,6.88
2022-12-23T15:41:34.140Z,6.88
2022-12-23T15:44:05.691Z,6.80
2022-12-23T15:46:37.562Z,6.77
2022-12-23T15:49:09.137Z,6.76
2022-12-23T15:52:06.387Z,6.71
2022-12-23T15:54:32.679Z,6.66
2022-12-23T15:57:04.627Z,6.54
2022-12-23T15:59:36.126Z,6.46
2022-12-23T16:02:24.980Z,6.46
2022-12-23T16:05:00.468Z,6.37
2022-12-23T16:07:33.098Z,6.28
2022-12-23T16:10:04.718Z,6.27
2022-12-23T16:12:36.571Z,6.27
2022-12-23T16:15:08.079Z,6.22
2022-12-23T16:17:40.124Z,6.17
2022-12-23T16:20:11.639Z,6.14
2022-12-23T16:22:43.169Z,6.14
2022-12-23T16:25:14.714Z,6.17
2022-12-23T16:27:46.509Z,6.15
2022-12-23T16:30:18.041Z,6.21
2022-12-23T16:32:49.655Z,6.21
2022-12-23T16:35:21.224Z,6.32
2022-12-23T16:37:53.058Z,6.35
2022-12-23T16:40:24.733Z,6.41
2022-12-23T16:42:56.588Z,6.44
2022-12-23T16:45:28.105Z,6.43
2022-12-23T16:48:00.188Z,6.47
2022-12-23T16:50:31.717Z,6.56
2022-12-23T16:53:03.545Z,6.60
2022-12-23T16:55:35.069Z,6.65
2022-12-23T16:58:06.894Z,6.61
2022-12-23T17:00:38.539Z,6.59
2022-12-23T17:03:10.418Z,6.65
2022-12-23T17:05:42.255Z,6.51
2022-12-23T17:08:13.779Z,6.52
2022-12-23T17:10:45.625Z,6.52
2022-12-23T17:13:17.172Z,6.48
2022-12-23T17:15:48.904Z,6.47
2022-12-23T17:18:20.410Z,6.50
2022-12-23T17:20:52.434Z,6.50
2022-12-23T17:23:24.307Z,6.52
2022-12-23T17:25:56.243Z,6.53
2022-12-23T17:28:27.747Z,6.59
2022-12-23T17:30:59.391Z,6.62
2022-12-23T17:33:30.931Z,6.64
2022-12-23T17:36:02.825Z,6.69
2022-12-23T17:38:34.359Z,6.69
2022-12-23T17:41:06.275Z,6.70
2022-12-23T17:43:37.790Z,6.69
2022-12-23T17:46:09.822Z,6.70
2022-12-23T17:48:42.539Z,6.72
2022-12-23T17:51:14.349Z,6.72
2022-12-23T17:53:46.839Z,6.73
2022-12-23T17:56:19.022Z,6.76
2022-12-23T17:58:50.562Z,6.73
2022-12-23T18:01:22.488Z,6.71
2022-12-23T18:03:54.088Z,6.74
2022-12-23T18:06:25.635Z,6.74
2022-12-23T18:08:57.765Z,6.80
2022-12-23T18:11:29.691Z,6.77
2022-12-23T18:14:01.235Z,6.79
2022-12-23T18:16:33.196Z,6.79
2022-12-23T18:19:04.733Z,6.79
2022-12-23T18:21:36.703Z,6.79
2022-12-23T18:24:08.840Z,6.79
2022-12-23T18:26:40.814Z,6.77
2022-12-23T18:29:12.387Z,6.71
2022-12-23T18:31:50.219Z,6.66
2022-12-23T18:34:22.851Z,6.57
2022-12-23T18:36:54.807Z,6.56
2022-12-23T18:39:26.360Z,6.05
2022-12-23T18:41:58.247Z,6.52
2022-12-23T18:44:29.758Z,6.49
2022-12-23T18:47:01.509Z,6.57
2022-12-23T18:49:34.272Z,6.63
2022-12-23T18:52:07.692Z,6.64
2022-12-23T18:54:39.397Z,6.70
2022-12-23T18:57:11.415Z,6.72
2022-12-23T18:59:42.939Z,6.73
2022-12-23T19:02:15.550Z,6.77
2022-12-23T19:04:47.099Z,6.72
2022-12-23T19:07:19.190Z,6.71
2022-12-23T19:09:50.708Z,6.71
2022-12-23T19:12:22.568Z,6.70
2022-12-23T19:14:54.088Z,6.70
2022-12-23T19:17:25.930Z,6.69
2022-12-23T19:19:57.533Z,6.61
2022-12-23T19:22:29.204Z,6.61
2022-12-23T19:25:06.032Z,6.59
2022-12-23T19:27:39.155Z,6.59
2022-12-23T19:30:10.683Z,6.55
2022-12-23T19:32:42.479Z,6.52
2022-12-23T19:35:14.012Z,6.51
2022-12-23T19:37:46.347Z,6.51
2022-12-23T19:40:17.965Z,6.51
2022-12-23T19:42:49.871Z,6.49
2022-12-23T19:45:21.384Z,6.49
2022-12-23T19:47:53.172Z,6.45
2022-12-23T19:50:26.380Z,6.46
2022-12-23T19:52:58.372Z,6.47
2022-12-23T19:55:29.911Z,6.41
2022-12-23T19:58:01.727Z,6.38
2022-12-23T20:00:33.322Z,6.40
2022-12-23T20:03:05.337Z,6.46
2022-12-23T20:08:11.620Z,6.34
2022-12-23T20:10:43.212Z,6.37
2022-12-23T20:13:15.048Z,6.31
2022-12-23T20:15:46.607Z,6.34
2022-12-23T20:18:18.160Z,6.35
2022-12-23T20:20:49.672Z,6.30
2022-12-23T20:23:21.189Z,6.28
2022-12-23T20:25:52.723Z,6.24
2022-12-23T20:28:24.687Z,6.18
2022-12-23T20:30:56.211Z,6.13
2022-12-23T20:33:28.076Z,6.07
2022-12-23T20:35:59.605Z,6.03
2022-12-23T20:38:31.513Z,5.98
2022-12-23T20:41:03.174Z,6.03
2022-12-23T20:43:35.071Z,6.01
2022-12-23T20:46:06.584Z,6.04
2022-12-23T20:48:38.461Z,6.02
2022-12-23T20:51:10.044Z,6.03
2022-12-23T20:53:41.912Z,6.06
2022-12-23T20:56:13.494Z,6.09
2022-12-23T20:59:03.035Z,6.10
2022-12-23T21:01:35.385Z,6.06
2022-12-23T21:04:07.347Z,6.06
2022-12-23T21:06:38.851Z,4.86
2022-12-23T21:09:11.879Z,6.04
2022-12-23T21:11:43.602Z,6.03
2022-12-23T21:14:15.664Z,6.02
2022-12-23T21:16:47.305Z,6.05
2022-12-23T21:19:19.630Z,6.03
2022-12-23T21:21:51.241Z,6.04
2022-12-23T21:24:23.225Z,6.06
2022-12-23T21:26:56.909Z,6.08
2022-12-23T21:29:28.894Z,6.04
2022-12-23T21:32:00.867Z,6.03
2022-12-23T21:34:32.514Z,5.96
2022-12-23T21:37:04.488Z,5.95
2022-12-23T21:39:36.176Z,6.00
2022-12-23T21:42:08.031Z,5.93
2022-12-23T21:44:39.560Z,5.90
2022-12-23T21:47:11.617Z,5.95
2022-12-23T21:49:44.187Z,5.96
2022-12-23T21:52:16.026Z,5.95
2022-12-23T21:54:47.711Z,5.91
2022-12-23T21:57:19.350Z,5.92
2022-12-23T21:59:50.884Z,5.88
2022-12-23T22:02:22.791Z,5.85
2022-12-23T22:04:54.451Z,5.85
2022-12-23T22:07:26.125Z,5.78
2022-12-23T22:09:57.633Z,5.82
2022-12-23T22:12:29.454Z,5.83
2022-12-23T22:15:03.837Z,5.79
2022-12-23T22:17:39.589Z,5.81
2022-12-23T22:20:11.137Z,5.82
2022-12-23T22:22:42.633Z,5.75
2022-12-23T22:25:14.111Z,5.78
2022-12-23T22:27:46.199Z,5.77
2022-12-23T22:30:17.780Z,5.74
2022-12-23T22:32:49.626Z,5.73
2022-12-23T22:35:21.173Z,5.75
2022-12-23T22:37:53.009Z,5.76
2022-12-23T22:40:24.563Z,5.75
2022-12-23T22:42:56.099Z,5.73
2022-12-23T22:45:27.687Z,5.70
2022-12-23T22:47:59.334Z,5.66
2022-12-23T22:50:30.820Z,5.62
2022-12-23T22:53:02.438Z,5.63
2022-12-23T22:55:33.977Z,5.62
2022-12-23T22:58:05.537Z,5.61
2022-12-23T23:00:37.024Z,5.70
2022-12-23T23:03:08.806Z,5.64
2022-12-23T23:05:40.366Z,5.63
2022-12-23T23:08:14.810Z,5.67
2022-12-23T23:10:46.298Z,5.70
2022-12-23T23:13:18.177Z,5.63
2022-12-23T23:15:49.685Z,5.58
2022-12-23T23:18:21.582Z,5.57
2022-12-23T23:20:53.112Z,5.63
2022-12-23T23:23:24.939Z,5.70
2022-12-23T23:25:56.492Z,5.77
2022-12-23T23:28:28.021Z,5.75
2022-12-23T23:31:32.028Z,5.77
2022-12-23T23:33:51.375Z,5.74
2022-12-23T23:36:23.026Z,5.75
2022-12-23T23:38:54.983Z,5.77
2022-12-23T23:41:26.515Z,5.73
2022-12-23T23:43:58.018Z,5.68
2022-12-23T23:46:31.618Z,5.60
2022-12-23T23:49:03.705Z,5.65
2022-12-23T23:51:35.191Z,5.62
2022-12-23T23:54:07.130Z,5.58
2022-12-23T23:56:39.574Z,5.63
2022-12-23T23:59:11.627Z,5.58
